Main page
METAR-TAF:

METAR-TAF

Airports :

Kassel, Germany

Kassel Airport

latitude: 51-24N, longitude: 009-23E, elevation: 277 m

Current weather observation

The report was made 2 hours and 11 minutes ago, at 18:50 UTC
Wind 4 kt from the East/Southeast
Temperature 0°C
Humidity 100%
Pressure 999 hPa
Visibility: 4000 m
Overcast at a height of 2500 ft
light snow

METAR: EDVK 201850Z 12004KT 4000 -SN OVC025 00/00 Q0999

Time: 22:01 (21:01 UTC)

Forecast

The report was made 4 hours and 1 minutes ago, at 17:00 UTC
Forecast valid from 20 at 18 UTC to 21 at 03 UTC
Wind 4 kt from the East/Southeast
Visibility 10 km or more
Broken clouds at a height of 1200 ft
Temporary
from 20 at 18 UTC to 21 at 03 UTC
Visibility: 3000 m
Broken clouds at a height of 400 ft
snow, rain

TAF: EDVK 201700Z 2018/2103 12004KT 9999 BKN012 TEMPO 2018/2103 3000 SNRA BKN004

Weather observations and forecasts of more than 4000 airports (METAR and TAF reports).

The available stations are represented by yellow and red dots on the map.

Hover mouse over dot to see the name of the station.

Then click to see weather observations and forecasts.

To change the map : click on the green buttons with a black cross to zoom in, on the green button with a dash to zoom out, or on the green arrows for adjacent maps.


METAR-TAF: